createdAt,value
2023-04-22T00:01:26.236Z,11.32
2023-04-22T00:03:53.662Z,9.75
2023-04-22T00:06:20.491Z,8.95
2023-04-22T00:08:47.155Z,9.20
2023-04-22T00:11:13.817Z,7.80
2023-04-22T00:13:40.478Z,8.02
2023-04-22T00:16:07.476Z,6.57
2023-04-22T00:18:36.220Z,7.20
2023-04-22T00:21:08.208Z,7.03
2023-04-22T00:26:02.267Z,7.18
2023-04-22T00:28:29.059Z,6.43
2023-04-22T00:30:58.830Z,8.82
2023-04-22T00:33:25.714Z,8.10
2023-04-22T00:35:54.707Z,7.95
2023-04-22T00:38:21.628Z,9.10
2023-04-22T00:40:48.371Z,11.15
2023-04-22T00:43:16.967Z,8.48
2023-04-22T00:45:44.553Z,10.23
2023-04-22T00:48:13.055Z,9.85
2023-04-22T00:50:39.789Z,10.35
2023-04-22T00:53:06.669Z,9.20
2023-04-22T00:55:36.536Z,9.18
2023-04-22T00:58:03.742Z,10.02
2023-04-22T01:00:31.028Z,9.68
2023-04-22T01:02:58.513Z,9.18
2023-04-22T01:05:25.859Z,11.18
2023-04-22T01:07:52.584Z,12.90
2023-04-22T01:10:19.747Z,10.70
2023-04-22T01:12:46.400Z,9.77
2023-04-22T01:15:13.339Z,11.07
2023-04-22T01:17:40.095Z,10.25
2023-04-22T01:20:10.342Z,10.40
2023-04-22T01:22:42.762Z,10.35
2023-04-22T01:25:11.357Z,11.85
2023-04-22T01:27:39.328Z,11.35
2023-04-22T01:30:07.161Z,13.10
2023-04-22T01:32:34.034Z,12.02
2023-04-22T01:35:00.748Z,13.05
2023-04-22T01:37:28.396Z,12.05
2023-04-22T01:39:55.673Z,13.95
2023-04-22T01:42:22.565Z,13.48
2023-04-22T01:44:49.160Z,12.18
2023-04-22T01:47:15.874Z,12.80
2023-04-22T01:49:42.916Z,12.65
2023-04-22T01:52:09.903Z,14.75
2023-04-22T01:54:36.590Z,12.73
2023-04-22T01:57:10.032Z,12.05
2023-04-22T01:59:36.889Z,11.88
2023-04-22T02:02:03.984Z,14.30
2023-04-22T02:04:32.100Z,11.52
2023-04-22T02:06:58.926Z,12.07
2023-04-22T02:09:25.568Z,11.43
2023-04-22T02:11:52.257Z,13.68
2023-04-22T02:14:18.869Z,13.57
2023-04-22T02:16:45.574Z,11.52
2023-04-22T02:19:12.174Z,12.25
2023-04-22T02:21:38.826Z,14.77
2023-04-22T02:24:05.892Z,12.77
2023-04-22T02:26:32.586Z,11.70
2023-04-22T02:28:59.253Z,11.93
2023-04-22T02:31:26.026Z,13.90
2023-04-22T02:33:52.774Z,13.45
2023-04-22T02:36:19.358Z,11.57
2023-04-22T02:38:46.250Z,12.40
2023-04-22T02:41:12.817Z,12.93
2023-04-22T02:43:39.541Z,13.27
2023-04-22T02:46:06.339Z,14.05
2023-04-22T02:48:32.982Z,12.63
2023-04-22T02:50:59.568Z,11.57
2023-04-22T02:53:26.139Z,11.55
2023-04-22T02:55:52.791Z,12.15
2023-04-22T02:58:19.519Z,13.10
2023-04-22T03:00:46.238Z,11.60
2023-04-22T03:03:13.441Z,12.90
2023-04-22T03:05:40.611Z,12.50
2023-04-22T03:08:07.259Z,11.60
2023-04-22T03:10:33.998Z,11.55
2023-04-22T03:13:00.643Z,11.75
2023-04-22T03:15:27.368Z,12.27
2023-04-22T03:17:54.032Z,10.45
2023-04-22T03:20:20.965Z,12.40
2023-04-22T03:22:47.652Z,12.15
2023-04-22T03:25:14.737Z,11.73
2023-04-22T03:27:41.447Z,11.93
2023-04-22T03:30:09.695Z,10.90
2023-04-22T03:32:36.456Z,10.90
2023-04-22T03:35:03.184Z,13.52
2023-04-22T03:37:29.889Z,11.05
2023-04-22T03:39:56.520Z,10.07
2023-04-22T03:42:23.259Z,11.20
2023-04-22T03:44:49.919Z,11.25
2023-04-22T03:47:16.608Z,11.05
2023-04-22T03:49:43.756Z,11.10
2023-04-22T03:52:10.644Z,10.85
2023-04-22T03:54:37.282Z,10.57
2023-04-22T03:57:04.007Z,11.52
2023-04-22T03:59:30.673Z,11.45
2023-04-22T04:01:57.445Z,11.50
2023-04-22T04:04:24.602Z,10.85
2023-04-22T04:06:51.569Z,11.30
2023-04-22T04:09:18.236Z,11.93
2023-04-22T04:11:44.881Z,12.35
2023-04-22T04:14:11.515Z,11.98
2023-04-22T04:16:39.163Z,12.40
2023-04-22T04:19:06.431Z,11.82
2023-04-22T04:21:34.268Z,11.55
2023-04-22T04:24:00.973Z,11.55
2023-04-22T04:26:28.839Z,12.95
2023-04-22T04:28:55.894Z,13.25
2023-04-22T04:31:25.026Z,13.10
2023-04-22T04:33:52.494Z,13.98
2023-04-22T04:36:19.904Z,13.00
2023-04-22T04:38:47.803Z,13.63
2023-04-22T04:41:14.628Z,12.20
2023-04-22T04:43:41.308Z,12.75
2023-04-22T04:46:08.464Z,13.27
2023-04-22T04:48:36.339Z,12.88
2023-04-22T04:51:04.505Z,13.20
2023-04-22T04:53:31.101Z,11.85
2023-04-22T04:55:57.721Z,12.43
2023-04-22T04:58:24.421Z,12.27
2023-04-22T05:00:51.273Z,11.90
2023-04-22T05:03:19.874Z,11.27
2023-04-22T05:05:48.939Z,10.70
2023-04-22T05:08:15.682Z,10.90
2023-04-22T05:10:42.747Z,12.57
2023-04-22T05:13:09.366Z,12.43
2023-04-22T05:15:36.218Z,11.25
2023-04-22T05:18:03.122Z,11.00
2023-04-22T05:20:29.828Z,13.25
2023-04-22T05:22:56.446Z,9.75
2023-04-22T05:25:24.236Z,10.45
2023-04-22T05:27:59.684Z,9.70
2023-04-22T05:30:27.480Z,9.05
2023-04-22T05:32:54.165Z,9.85
2023-04-22T05:35:20.924Z,11.45
2023-04-22T05:37:47.585Z,11.13
2023-04-22T05:40:14.186Z,9.38
2023-04-22T05:42:40.872Z,11.02
2023-04-22T05:45:08.337Z,12.73
2023-04-22T05:47:35.084Z,11.10
2023-04-22T05:50:01.764Z,14.10
2023-04-22T05:52:28.471Z,11.57
2023-04-22T05:54:55.037Z,10.75
2023-04-22T05:57:21.761Z,11.52
2023-04-22T05:59:48.449Z,10.98
2023-04-22T06:02:16.256Z,10.30
2023-04-22T06:04:43.370Z,11.02
2023-04-22T06:07:10.541Z,13.38
2023-04-22T06:09:38.402Z,10.05
2023-04-22T06:12:06.166Z,9.35
2023-04-22T06:14:32.798Z,11.68
2023-04-22T06:16:59.435Z,11.75
2023-04-22T06:19:26.162Z,9.20
2023-04-22T06:21:53.615Z,10.00
2023-04-22T06:24:22.331Z,9.55
2023-04-22T06:26:49.151Z,9.55
2023-04-22T06:29:16.070Z,9.02
2023-04-22T06:31:42.829Z,8.15
2023-04-22T06:34:09.503Z,8.32
2023-04-22T06:36:37.748Z,9.93
2023-04-22T06:39:05.783Z,9.70
2023-04-22T06:41:33.226Z,8.88
2023-04-22T06:43:59.858Z,9.20
2023-04-22T06:46:26.702Z,8.52
2023-04-22T06:48:53.448Z,8.70
2023-04-22T06:51:20.064Z,9.15
2023-04-22T06:53:46.708Z,10.15
2023-04-22T06:56:13.485Z,7.43
2023-04-22T06:58:40.058Z,7.28
2023-04-22T07:01:06.752Z,7.40
2023-04-22T07:03:34.150Z,7.20
2023-04-22T07:06:01.182Z,6.82
2023-04-22T07:08:27.994Z,7.22
2023-04-22T07:10:54.845Z,7.80
2023-04-22T07:13:21.560Z,7.32
2023-04-22T07:15:48.261Z,8.93
2023-04-22T07:18:14.922Z,7.22
2023-04-22T07:20:41.519Z,6.85
2023-04-22T07:23:08.180Z,4.70
2023-04-22T07:25:34.811Z,4.45
2023-04-22T07:28:01.409Z,4.20
2023-04-22T07:30:28.084Z,3.70
2023-04-22T07:32:56.126Z,3.60
2023-04-22T07:35:23.338Z,3.45
2023-04-22T07:37:50.049Z,3.50
2023-04-22T07:40:16.813Z,4.40
2023-04-22T07:42:43.466Z,2.97
2023-04-22T07:45:10.853Z,3.63
2023-04-22T07:47:37.555Z,2.92
2023-04-22T07:50:04.661Z,3.10
2023-04-22T07:52:31.452Z,4.50
2023-04-22T07:54:59.121Z,2.95
2023-04-22T07:57:26.034Z,3.22
2023-04-22T07:59:52.789Z,3.55
2023-04-22T08:02:19.732Z,3.78
2023-04-22T08:04:46.585Z,3.40
2023-04-22T08:07:31.760Z,4.13
2023-04-22T08:09:59.759Z,4.57
2023-04-22T08:12:26.409Z,5.63
2023-04-22T08:14:53.052Z,4.45
2023-04-22T08:17:22.071Z,3.90
2023-04-22T08:19:49.285Z,4.03
2023-04-22T08:22:17.851Z,6.55
2023-04-22T08:24:44.874Z,4.25
2023-04-22T08:27:11.852Z,4.30
2023-04-22T08:29:38.672Z,4.10
2023-04-22T08:32:05.660Z,3.80
2023-04-22T08:34:32.289Z,4.10
2023-04-22T08:36:59.078Z,4.00
2023-04-22T08:39:25.852Z,4.60
2023-04-22T08:41:53.335Z,3.92
2023-04-22T08:44:21.907Z,4.00
2023-04-22T08:46:49.267Z,4.20
2023-04-22T08:49:16.310Z,4.10
2023-04-22T08:51:44.308Z,4.80
2023-04-22T08:54:12.979Z,4.43
2023-04-22T08:56:45.319Z,5.88
2023-04-22T08:59:12.894Z,4.60
2023-04-22T09:01:41.430Z,5.68
2023-04-22T09:04:10.955Z,4.15
2023-04-22T09:06:39.170Z,6.20
2023-04-22T09:09:06.091Z,3.97
2023-04-22T09:11:33.429Z,4.50
2023-04-22T09:14:00.159Z,5.22
2023-04-22T09:16:26.786Z,5.18
2023-04-22T09:18:53.523Z,4.13
2023-04-22T09:21:20.375Z,3.80
2023-04-22T09:23:54.310Z,3.55
2023-04-22T09:26:23.487Z,4.72
2023-04-22T09:29:01.166Z,3.78
2023-04-22T09:31:28.939Z,3.22
2023-04-22T09:33:59.087Z,4.05
2023-04-22T09:36:30.285Z,4.80
2023-04-22T09:39:00.053Z,4.32
2023-04-22T09:41:38.754Z,4.03
2023-04-22T09:44:16.094Z,2.42
2023-04-22T09:46:44.309Z,2.63
2023-04-22T09:49:11.374Z,2.28
2023-04-22T09:51:41.512Z,3.17
2023-04-22T09:54:10.450Z,3.05
2023-04-22T09:57:04.028Z,2.67
2023-04-22T09:59:32.023Z,2.78
2023-04-22T10:02:01.274Z,2.97
2023-04-22T10:04:28.445Z,2.60
2023-04-22T10:06:55.896Z,3.00
2023-04-22T10:09:24.202Z,2.45
2023-04-22T10:11:54.098Z,2.42
2023-04-22T10:14:24.570Z,3.50
2023-04-22T10:16:54.419Z,2.65
2023-04-22T10:19:23.610Z,3.17
2023-04-22T10:21:56.174Z,3.58
2023-04-22T10:24:27.159Z,4.78
2023-04-22T10:26:57.799Z,3.23
2023-04-22T10:29:27.371Z,3.45
2023-04-22T10:31:59.641Z,3.22
2023-04-22T10:36:57.529Z,3.05
2023-04-22T10:39:25.360Z,3.67
2023-04-22T10:41:54.345Z,2.85
2023-04-22T10:44:22.725Z,2.17
2023-04-22T10:46:52.968Z,2.17
2023-04-22T10:49:24.566Z,2.42
2023-04-22T10:51:55.558Z,1.80
2023-04-22T10:54:31.545Z,1.85
2023-04-22T10:57:08.591Z,2.40
2023-04-22T10:59:42.308Z,2.40
2023-04-22T11:02:12.066Z,2.30
2023-04-22T11:04:39.949Z,2.45
2023-04-22T11:07:13.418Z,2.47
2023-04-22T11:09:41.333Z,2.85
2023-04-22T11:12:35.963Z,2.78
2023-04-22T11:15:10.595Z,2.90
2023-04-22T11:17:38.414Z,3.25
2023-04-22T11:20:07.427Z,2.85
2023-04-22T11:22:39.757Z,3.13
2023-04-22T11:25:06.770Z,4.15
2023-04-22T11:27:33.466Z,4.03
2023-04-22T11:30:07.637Z,4.40
2023-04-22T11:32:39.001Z,4.65
2023-04-22T11:35:08.419Z,4.83
2023-04-22T11:37:52.623Z,5.82
2023-04-22T11:40:30.627Z,7.55
2023-04-22T11:43:00.254Z,5.65
2023-04-22T11:45:28.630Z,5.75
2023-04-22T11:47:56.563Z,5.82
2023-04-22T11:50:28.528Z,4.72
2023-04-22T11:53:01.287Z,6.45
2023-04-22T11:55:38.313Z,6.15
2023-04-22T11:58:08.196Z,6.57
2023-04-22T12:01:01.272Z,6.28
2023-04-22T12:03:30.202Z,5.57
2023-04-22T12:05:59.678Z,5.70
2023-04-22T12:08:30.601Z,6.38
2023-04-22T12:10:59.737Z,5.95
2023-04-22T12:13:30.403Z,6.60
2023-04-22T12:16:13.968Z,6.82
2023-04-22T12:18:47.969Z,5.60
2023-04-22T12:21:17.379Z,6.47
2023-04-22T12:23:45.792Z,6.38
2023-04-22T12:26:13.678Z,6.50
2023-04-22T12:28:40.989Z,6.45
2023-04-22T12:31:08.700Z,7.78
2023-04-22T12:33:36.484Z,6.07
2023-04-22T12:36:03.881Z,6.15
2023-04-22T12:38:30.722Z,7.18
2023-04-22T12:40:58.598Z,6.95
2023-04-22T12:43:25.721Z,9.73
2023-04-22T12:45:52.461Z,7.53
2023-04-22T12:48:19.237Z,7.85
2023-04-22T12:50:46.482Z,6.90
2023-04-22T12:53:13.176Z,6.60
2023-04-22T12:55:41.069Z,6.75
2023-04-22T12:58:08.124Z,7.63
2023-04-22T13:00:36.068Z,6.50
2023-04-22T13:03:03.719Z,6.20
2023-04-22T13:05:32.847Z,6.88
2023-04-22T13:08:07.361Z,7.00
2023-04-22T13:10:35.840Z,6.85
2023-04-22T13:15:37.691Z,6.15
2023-04-22T13:18:04.429Z,5.78
2023-04-22T13:20:31.142Z,5.95
2023-04-22T13:22:58.636Z,7.25
2023-04-22T13:25:25.339Z,7.47
2023-04-22T13:27:52.056Z,7.10
2023-04-22T13:30:18.798Z,8.75
2023-04-22T13:32:45.880Z,8.90
2023-04-22T13:35:12.840Z,6.70
2023-04-22T13:37:39.485Z,5.22
2023-04-22T13:40:06.784Z,6.55
2023-04-22T13:42:33.673Z,6.63
2023-04-22T13:45:00.854Z,6.90
2023-04-22T13:47:27.679Z,7.75
2023-04-22T13:49:54.353Z,6.10
2023-04-22T13:52:21.000Z,7.13
2023-04-22T13:54:47.774Z,8.57
2023-04-22T13:57:14.390Z,7.55
2023-04-22T13:59:41.694Z,7.10
2023-04-22T14:02:08.690Z,6.05
2023-04-22T14:04:35.477Z,5.68
2023-04-22T14:07:02.722Z,5.80
2023-04-22T14:09:29.442Z,6.13
2023-04-22T14:11:56.993Z,6.07
2023-04-22T14:14:23.793Z,6.55
2023-04-22T14:16:51.939Z,4.85
2023-04-22T14:19:18.757Z,5.68
2023-04-22T14:21:45.738Z,5.95
2023-04-22T14:24:12.494Z,7.05
2023-04-22T14:26:39.156Z,6.95
2023-04-22T14:29:05.859Z,6.72
2023-04-22T14:31:32.797Z,6.00
2023-04-22T14:33:59.457Z,6.18
2023-04-22T14:36:28.801Z,6.82
2023-04-22T14:38:55.518Z,6.55
2023-04-22T14:41:22.398Z,7.93
2023-04-22T14:43:49.107Z,7.20
2023-04-22T14:46:15.779Z,7.82
2023-04-22T14:48:42.700Z,5.60
2023-04-22T14:51:09.523Z,5.32
2023-04-22T14:53:36.512Z,5.50
2023-04-22T14:56:03.665Z,6.00
2023-04-22T14:58:33.181Z,6.45
2023-04-22T15:01:01.197Z,7.93
2023-04-22T15:03:28.210Z,6.88
2023-04-22T15:05:55.768Z,9.40
2023-04-22T15:08:25.202Z,6.15
2023-04-22T15:10:52.014Z,6.25
2023-04-22T15:13:19.758Z,7.00
2023-04-22T15:15:46.884Z,6.90
2023-04-22T15:18:13.865Z,6.68
2023-04-22T15:20:41.494Z,7.07
2023-04-22T15:23:08.159Z,6.20
2023-04-22T15:25:35.887Z,6.90
2023-04-22T15:28:03.238Z,6.82
2023-04-22T15:30:30.918Z,7.13
2023-04-22T15:32:57.619Z,6.32
2023-04-22T15:35:24.613Z,7.10
2023-04-22T15:37:52.680Z,6.70
2023-04-22T15:40:19.425Z,8.40
2023-04-22T15:42:46.154Z,6.53
2023-04-22T15:45:13.159Z,6.65
2023-04-22T15:47:40.771Z,6.55
2023-04-22T15:50:09.442Z,7.30
2023-04-22T15:52:38.405Z,7.60
2023-04-22T15:55:06.481Z,7.07
2023-04-22T15:57:35.379Z,7.50
2023-04-22T16:00:11.659Z,8.07
2023-04-22T16:02:40.781Z,7.00
2023-04-22T16:05:08.145Z,8.48
2023-04-22T16:07:35.368Z,7.45
2023-04-22T16:10:04.056Z,6.47
2023-04-22T16:12:34.184Z,6.53
2023-04-22T16:15:01.431Z,6.32
2023-04-22T16:17:28.336Z,6.28
2023-04-22T16:19:55.237Z,5.97
2023-04-22T16:22:21.909Z,6.03
2023-04-22T16:24:48.767Z,7.75
2023-04-22T16:27:18.162Z,6.72
2023-04-22T16:29:45.128Z,5.97
2023-04-22T16:32:12.114Z,6.80
2023-04-22T16:34:39.001Z,6.45
2023-04-22T16:37:08.573Z,5.32
2023-04-22T16:39:35.478Z,6.15
2023-04-22T16:42:03.046Z,7.03
2023-04-22T16:44:29.856Z,7.15
2023-04-22T16:46:56.520Z,6.25
2023-04-22T16:49:23.213Z,7.47
2023-04-22T16:51:49.968Z,7.22
2023-04-22T16:54:16.608Z,7.03
2023-04-22T16:56:43.180Z,6.75
2023-04-22T16:59:09.911Z,7.22
2023-04-22T17:01:36.684Z,6.43
2023-04-22T17:04:03.530Z,6.50
2023-04-22T17:06:31.327Z,6.90
2023-04-22T17:08:58.232Z,6.93
2023-04-22T17:11:25.392Z,8.65
2023-04-22T17:13:53.042Z,7.20
2023-04-22T17:16:19.774Z,7.90
2023-04-22T17:18:47.683Z,7.18
2023-04-22T17:21:14.953Z,7.00
2023-04-22T17:23:41.604Z,7.43
2023-04-22T17:26:08.593Z,6.70
2023-04-22T17:28:35.659Z,6.55
2023-04-22T17:31:03.947Z,7.55
2023-04-22T17:33:31.346Z,7.40
2023-04-22T17:35:58.061Z,7.70
2023-04-22T17:38:24.732Z,7.65
2023-04-22T17:40:51.397Z,7.85
2023-04-22T17:43:18.168Z,7.10
2023-04-22T17:45:44.795Z,7.47
2023-04-22T17:48:11.434Z,7.07
2023-04-22T17:50:38.088Z,7.30
2023-04-22T17:53:04.793Z,8.30
2023-04-22T17:55:35.073Z,7.10
2023-04-22T17:58:02.542Z,7.22
2023-04-22T18:00:29.455Z,8.68
2023-04-22T18:02:56.398Z,10.43
2023-04-22T18:05:23.342Z,9.82
2023-04-22T18:07:50.313Z,10.55
2023-04-22T18:10:16.994Z,10.85
2023-04-22T18:12:43.834Z,12.40
2023-04-22T18:15:10.728Z,11.60
2023-04-22T18:17:37.397Z,11.48
2023-04-22T18:20:16.498Z,11.48
2023-04-22T18:22:43.967Z,11.43
2023-04-22T18:25:10.747Z,10.68
2023-04-22T18:27:37.413Z,11.35
2023-04-22T18:30:04.754Z,11.65
2023-04-22T18:32:31.561Z,11.98
2023-04-22T18:34:58.565Z,14.02
2023-04-22T18:37:29.646Z,12.48
2023-04-22T18:39:57.746Z,13.55
2023-04-22T18:42:24.624Z,11.95
2023-04-22T18:44:51.341Z,11.68
2023-04-22T18:47:17.982Z,12.75
2023-04-22T18:49:45.547Z,11.23
2023-04-22T18:52:12.918Z,12.55
2023-04-22T18:54:39.856Z,12.10
2023-04-22T18:57:06.943Z,12.52
2023-04-22T18:59:33.664Z,12.85
2023-04-22T19:02:00.597Z,14.40
2023-04-22T19:04:27.713Z,13.43
2023-04-22T19:06:57.011Z,12.73
2023-04-22T19:09:24.052Z,13.18
2023-04-22T19:11:50.817Z,17.15
2023-04-22T19:14:17.582Z,16.30
2023-04-22T19:16:44.364Z,15.70
2023-04-22T19:19:12.226Z,12.10
2023-04-22T19:21:39.622Z,12.90
2023-04-22T19:24:06.690Z,14.18
2023-04-22T19:26:34.411Z,12.68
2023-04-22T19:29:04.914Z,11.55
2023-04-22T19:31:33.092Z,10.60
2023-04-22T19:34:03.962Z,13.85
2023-04-22T19:36:51.289Z,14.27
2023-04-22T19:39:37.953Z,10.77
2023-04-22T19:42:05.857Z,11.57
2023-04-22T19:44:32.731Z,12.85
2023-04-22T19:46:59.478Z,12.20
2023-04-22T19:49:26.566Z,14.52
2023-04-22T19:51:53.907Z,18.23
2023-04-22T19:54:21.997Z,18.27
2023-04-22T19:56:49.201Z,14.85
2023-04-22T19:59:16.072Z,16.33
2023-04-22T20:01:43.171Z,15.10
2023-04-22T20:04:10.192Z,14.15
2023-04-22T20:06:37.772Z,13.90
2023-04-22T20:09:05.805Z,15.20
2023-04-22T20:11:33.049Z,18.67
2023-04-22T20:14:00.119Z,16.08
2023-04-22T20:16:27.873Z,14.35
2023-04-22T20:18:55.355Z,14.07
2023-04-22T20:21:22.321Z,15.68
2023-04-22T20:23:51.119Z,12.18
2023-04-22T20:26:21.400Z,12.30
2023-04-22T20:28:52.148Z,13.93
2023-04-22T20:31:20.646Z,14.88
2023-04-22T20:33:47.535Z,12.75
2023-04-22T20:36:17.070Z,14.43
2023-04-22T20:38:48.734Z,14.07
2023-04-22T20:41:19.048Z,14.30
2023-04-22T20:43:46.672Z,14.25
2023-04-22T20:46:13.460Z,10.60
2023-04-22T20:48:40.121Z,11.02
2023-04-22T20:51:07.063Z,9.38
2023-04-22T20:53:36.299Z,9.13
2023-04-22T20:56:03.253Z,10.10
2023-04-22T20:58:30.154Z,8.55
2023-04-22T21:00:56.975Z,8.45
2023-04-22T21:03:25.243Z,8.43
2023-04-22T21:05:52.401Z,6.45
2023-04-22T21:08:23.411Z,6.47
2023-04-22T21:10:52.797Z,5.47
2023-04-22T21:13:19.971Z,4.82
2023-04-22T21:16:08.976Z,5.43
2023-04-22T21:18:44.662Z,5.43
2023-04-22T21:21:14.234Z,4.75
2023-04-22T21:23:42.211Z,5.05
2023-04-22T21:26:10.099Z,7.10
2023-04-22T21:28:37.656Z,5.28
2023-04-22T21:31:04.807Z,4.90
2023-04-22T21:33:33.360Z,5.28
2023-04-22T21:36:00.502Z,4.88
2023-04-22T21:38:27.436Z,4.85
2023-04-22T21:40:54.197Z,4.97
2023-04-22T21:43:20.890Z,4.93
2023-04-22T21:45:47.514Z,5.15
2023-04-22T21:48:14.152Z,5.13
2023-04-22T21:50:41.916Z,5.88
2023-04-22T21:53:08.560Z,7.03
2023-04-22T21:55:35.181Z,6.18
2023-04-22T21:58:01.900Z,6.90
2023-04-22T22:00:28.669Z,6.25
2023-04-22T22:02:55.418Z,6.32
2023-04-22T22:05:22.210Z,5.95
2023-04-22T22:07:49.118Z,7.57
2023-04-22T22:10:19.209Z,7.30
2023-04-22T22:12:46.978Z,7.47
2023-04-22T22:15:13.679Z,7.70
2023-04-22T22:17:40.399Z,8.30
2023-04-22T22:20:12.061Z,7.55
2023-04-22T22:22:40.784Z,9.75
2023-04-22T22:25:12.552Z,8.98
2023-04-22T22:27:48.687Z,9.88
2023-04-22T22:30:16.845Z,8.32
2023-04-22T22:32:43.559Z,10.95
2023-04-22T22:35:10.820Z,11.02
2023-04-22T22:37:38.663Z,11.30
2023-04-22T22:40:06.336Z,11.73
2023-04-22T22:42:32.963Z,12.15
2023-04-22T22:44:59.635Z,13.68
2023-04-22T22:47:26.638Z,11.80
2023-04-22T22:49:53.617Z,10.70
2023-04-22T22:52:20.361Z,12.70
2023-04-22T22:54:48.976Z,12.95
2023-04-22T22:57:16.336Z,10.13
2023-04-22T22:59:43.026Z,9.85
2023-04-22T23:02:10.155Z,10.07
2023-04-22T23:04:37.577Z,5.88
2023-04-22T23:07:04.411Z,6.70
2023-04-22T23:09:31.102Z,6.40
2023-04-22T23:11:58.489Z,7.40
2023-04-22T23:14:28.232Z,7.78
2023-04-22T23:16:54.886Z,8.15
2023-04-22T23:19:21.953Z,7.38
2023-04-22T23:21:49.986Z,7.57
2023-04-22T23:24:17.082Z,7.38
2023-04-22T23:26:44.128Z,7.18
2023-04-22T23:29:11.030Z,7.45
2023-04-22T23:31:41.756Z,7.60
2023-04-22T23:34:09.492Z,7.78
2023-04-22T23:36:37.416Z,7.55
2023-04-22T23:39:06.644Z,7.53
2023-04-22T23:41:33.666Z,7.85
2023-04-22T23:44:00.388Z,8.70
2023-04-22T23:46:27.150Z,7.97
2023-04-22T23:48:54.443Z,7.97
2023-04-22T23:51:21.178Z,9.32
2023-04-22T23:53:47.812Z,10.07
2023-04-22T23:56:14.929Z,8.75
2023-04-22T23:58:42.015Z,10.65
